LPPDLPLA

Guest
Details From LPPD - Ponta Delgada
To LPLA - Lajes
Flight Number -
Tags Routegen Generated
Created
Modified
Stats Distance 89 nm / 165 km
Max Altitude 200 ft / 61 m
Waypoints 6
Social Downloads 6
Likes 0
Share VATSIM

Download

Looking for another format? Having issues loading an existing format? Contact us
Advertisement - Login to hide

Notes

Departing runway 29 LPPD. Arriving runway 14 LPLA.

Route

LPPD +37.77_-025.80 +37.81_-025.85 +38.18_-026.34 +38.70_-027.02 LPLA

ID Type Via Altitude Latitude Longitude Leg Dist Tot Dist Heading (true) Name
O LPPD APT - 200 ft / 61 m 37.74624˚ -25.71090˚ - 0 nm - -
+37.77_-025.80 LATLON - 200 ft / 61 m 37.77307˚ -25.79591˚ 4 nm 4 nm 292° / 292° -
+37.81_-025.85 LATLON - 200 ft / 61 m 37.81163˚ -25.85055˚ 3 nm 7 nm 312° / 312° -
+38.18_-026.34 LATLON - 200 ft / 61 m 38.18334˚ -26.33821˚ 32 nm 39 nm 314° / 314° -
+38.70_-027.02 LATLON - 200 ft / 61 m 38.69676˚ -27.02284˚ 44 nm 84 nm 314° / 314° -
O LPLA APT - 0 ft / 0 m 38.75287˚ -27.08141˚ 4 nm 88 nm 321° / 321° -

Altitude Profile

Advertisement - Login to hide

LPPD

Details ICAO LPPD (PDL)
Name PONTA DELGADA
Region Portugal
Timezone Atlantic/Azores (UTC-1.0)
Stats Elevation 259 ft / 79 m (AMSL)
Location 37.742078° -25.697736°
Runways 1
Magnetic Variation 8.361° W

METAR

LPPD 170530Z 29004KT 9999 FEW020 BKN040 17/14 Q1030

Decode

TAF

TAF LPPD 170500Z 1706/1806 VRB05KT 9999 FEW020 BKN035 TEMPO 1706/1803 SCT018 BECMG 1709/1712 16010KT PROB30 TEMPO 1803/1806 5000 DZRA SCT004 BKN008

Decode

Departure Runways

ID Width Length Bearing (true) Bearing (mag) Surface Threshold Offset Overrun Length
12 148 ft / 45 m 8,179 ft / 2,493 m 111.77° 120.13° Asphalt 0 ft / 0 m 375 ft / 114 m
30 148 ft / 45 m 8,179 ft / 2,493 m 291.79° 300.15° Asphalt 787 ft / 240 m 0 ft / 0 m

LPLA

Details ICAO LPLA (TER)
Name LAJES
Region Portugal
Timezone Atlantic/Azores (UTC-1.0)
Stats Elevation 180 ft / 55 m (AMSL)
Location 38.764410° -27.093482°
Runways 1
Magnetic Variation 8.934° W

METAR

LPLA 170500Z /////KT 9999 FEW016 SCT025 16/15 Q1029

Decode

TAF

TAF LPLA 170502Z 1706/1806 20010KT 9999 FEW020 SCT030= TAF LPPD 170500Z 1706/1806 VRB05KT 9999 FEW020 BKN035 TEMPO 1706/1803 SCT018 BECMG 1709/1712 16010KT PROB30 TEMPO 1803/1806 5000 DZRA SCT004 BKN008

Decode

Destination Runways

ID Width Length Bearing (true) Bearing (mag) Surface Threshold Offset Overrun Length
15 197 ft / 60 m 10,869 ft / 3,313 m 140.81° 149.74° Asphalt 0 ft / 0 m 991 ft / 302 m
33 197 ft / 60 m 10,869 ft / 3,313 m 320.82° 329.75° Asphalt 0 ft / 0 m 1,040 ft / 317 m

Approach Navaids

Runway Type Ident Frequency Range Bearing (true) Bearing (mag) Slope Elevation
15 Localiser DK 109.90 MHz 18 nm / 33 km 140.82° 149.76° - 180 ft / 55 m (AMSL)
15 Glidescope DK 109.90 MHz 10 nm / 19 km 140.81° 149.75° 3.00° 159 ft / 48 m (AMSL)
33 Localiser OZ 111.50 MHz 18 nm / 33 km 320.81° 329.75° - 158 ft / 48 m (AMSL)
33 Glidescope OZ 111.50 MHz 10 nm / 19 km 320.81° 329.75° 3.20° 180 ft / 55 m (AMSL)

Popular Alternatives